createdAt,value
2024-01-16T00:02:30.395Z,98550.66
2024-01-16T00:06:33.292Z,98503.94
2024-01-16T00:10:37.571Z,98460.44
2024-01-16T00:14:40.558Z,98527.94
2024-01-16T00:18:43.562Z,98493.50
2024-01-16T00:22:46.329Z,98528.31
2024-01-16T00:26:51.156Z,98517.19
2024-01-16T00:30:53.936Z,98538.31
2024-01-16T00:34:56.800Z,98516.44
2024-01-16T00:38:59.662Z,98527.44
2024-01-16T00:43:03.848Z,98545.91
2024-01-16T00:47:06.963Z,98553.28
2024-01-16T00:51:09.889Z,98586.59
2024-01-16T00:55:12.956Z,98557.53
2024-01-16T00:59:17.248Z,98403.63
2024-01-16T01:03:26.033Z,98571.69
2024-01-16T01:07:28.829Z,98573.59
2024-01-16T01:11:31.671Z,98495.97
2024-01-16T01:15:35.882Z,98577.22
2024-01-16T01:19:38.655Z,98566.81
2024-01-16T01:23:41.566Z,98569.72
2024-01-16T01:27:44.492Z,98437.03
2024-01-16T01:31:51.519Z,98537.38
2024-01-16T01:35:54.547Z,98536.19
2024-01-16T01:39:57.467Z,98614.06
2024-01-16T01:44:00.563Z,98606.66
2024-01-16T01:48:08.168Z,98571.28
2024-01-16T01:52:11.267Z,98547.66
2024-01-16T01:56:17.063Z,98644.66
2024-01-16T02:00:20.085Z,98585.38
2024-01-16T02:04:24.545Z,98553.13
2024-01-16T02:08:28.474Z,98608.25
2024-01-16T02:12:31.311Z,98551.31
2024-01-16T02:16:38.278Z,98475.97
2024-01-16T02:20:42.510Z,98494.66
2024-01-16T02:24:46.743Z,98443.16
2024-01-16T02:28:49.536Z,98496.19
2024-01-16T02:32:52.533Z,98544.97
2024-01-16T02:36:55.480Z,98616.84
2024-01-16T02:40:59.644Z,98579.22
2024-01-16T02:45:06.353Z,98531.03
2024-01-16T02:49:09.799Z,98539.53
2024-01-16T02:53:12.708Z,98524.63
2024-01-16T02:57:16.887Z,98580.38
2024-01-16T03:01:20.815Z,98589.22
2024-01-16T03:05:23.644Z,98617.66
2024-01-16T03:09:29.638Z,98618.91
2024-01-16T03:13:33.886Z,98527.06
2024-01-16T03:17:36.982Z,98569.06
2024-01-16T03:21:39.946Z,98526.59
2024-01-16T03:25:42.732Z,98593.59
2024-01-16T03:29:48.049Z,98625.81
2024-01-16T03:33:50.974Z,98580.56
2024-01-16T03:37:53.791Z,98541.59
2024-01-16T03:41:56.586Z,98642.69
2024-01-16T03:46:00.931Z,98541.13
2024-01-16T03:50:11.492Z,98523.94
2024-01-16T03:54:14.570Z,98534.97
2024-01-16T03:58:17.402Z,98569.59
2024-01-16T04:02:21.620Z,98484.19
2024-01-16T04:06:24.636Z,98560.59
2024-01-16T04:10:32.540Z,98580.94
2024-01-16T04:14:35.357Z,98547.84
2024-01-16T04:18:42.104Z,98521.34
2024-01-16T04:22:45.030Z,98553.38
2024-01-16T04:26:47.883Z,98546.78
2024-01-16T04:30:50.697Z,98490.56
2024-01-16T04:34:54.901Z,98419.84
2024-01-16T04:39:00.009Z,98570.22
2024-01-16T04:43:08.787Z,98560.50
2024-01-16T04:47:11.648Z,98509.50
2024-01-16T04:51:15.905Z,98576.03
2024-01-16T04:55:18.818Z,98532.28
2024-01-16T04:59:29.600Z,98520.69
2024-01-16T05:03:32.371Z,98529.19
2024-01-16T05:07:37.136Z,98519.00
2024-01-16T05:11:39.741Z,98565.03
2024-01-16T05:15:43.262Z,98530.16
2024-01-16T05:19:53.398Z,98506.16
2024-01-16T05:23:57.627Z,98490.16
2024-01-16T05:28:00.383Z,98488.56
2024-01-16T05:32:03.203Z,98513.00
2024-01-16T05:36:06.313Z,98460.34
2024-01-16T05:40:17.395Z,98477.72
2024-01-16T05:44:20.105Z,98551.44
2024-01-16T05:48:22.914Z,98551.91
2024-01-16T05:52:26.153Z,98494.88
2024-01-16T05:56:35.445Z,98507.53
2024-01-16T06:00:39.106Z,98527.38
2024-01-16T06:04:49.942Z,98526.53
2024-01-16T06:08:52.837Z,98477.03
2024-01-16T06:12:57.003Z,98553.66
2024-01-16T06:16:59.749Z,98546.44
2024-01-16T06:21:03.660Z,98524.66
2024-01-16T06:25:07.452Z,98480.63
2024-01-16T06:29:21.409Z,98530.97
2024-01-16T06:33:31.296Z,98469.69
2024-01-16T06:37:34.197Z,98532.25
2024-01-16T06:41:36.958Z,98534.84
2024-01-16T06:45:41.184Z,98478.50
2024-01-16T06:49:43.982Z,98489.16
2024-01-16T06:53:47.208Z,98520.91
2024-01-16T06:57:50.429Z,98459.00
2024-01-16T07:01:55.860Z,98341.59
2024-01-16T07:05:59.060Z,98516.41
2024-01-16T07:10:02.183Z,98462.75
2024-01-16T07:14:06.019Z,98522.78
2024-01-16T07:18:11.024Z,98541.28
2024-01-16T07:22:17.073Z,98540.97
2024-01-16T07:26:19.835Z,98541.53
2024-01-16T07:30:22.808Z,98454.44
2024-01-16T07:34:35.064Z,98548.16
2024-01-16T07:38:38.972Z,98561.78
2024-01-16T07:42:42.192Z,98551.47
2024-01-16T07:46:47.067Z,98574.25
2024-01-16T07:50:51.059Z,98570.84
2024-01-16T07:54:53.844Z,98525.56
2024-01-16T07:58:56.754Z,98576.50
2024-01-16T08:02:59.767Z,98580.50
2024-01-16T08:07:04.214Z,98584.34
2024-01-16T08:11:09.227Z,98579.59
2024-01-16T08:15:12.229Z,98536.56
2024-01-16T08:19:16.258Z,98574.06
2024-01-16T08:23:22.574Z,98535.72
2024-01-16T08:27:26.523Z,98533.78
2024-01-16T08:31:36.569Z,98525.34
2024-01-16T08:35:39.544Z,98584.44
2024-01-16T08:39:51.881Z,98577.94
2024-01-16T08:43:55.589Z,98587.31
2024-01-16T08:48:01.120Z,98581.47
2024-01-16T08:52:05.666Z,98522.63
2024-01-16T08:56:13.425Z,98582.97
2024-01-16T09:00:16.928Z,98540.72
2024-01-16T09:04:19.929Z,98549.78
2024-01-16T09:08:23.802Z,98596.44
2024-01-16T09:12:28.664Z,98547.44
2024-01-16T09:16:34.832Z,98591.66
2024-01-16T09:20:49.752Z,98581.63
2024-01-16T09:24:53.689Z,98572.28
2024-01-16T09:29:03.819Z,98547.84
2024-01-16T09:33:08.228Z,98534.09
2024-01-16T09:37:11.145Z,98534.00
2024-01-16T09:41:23.687Z,98554.72
2024-01-16T09:45:31.711Z,98549.88
2024-01-16T09:49:34.675Z,98556.78
2024-01-16T09:53:39.927Z,98518.19
2024-01-16T09:57:43.848Z,98554.13
2024-01-16T10:01:48.370Z,98527.06
2024-01-16T10:05:51.521Z,98508.69
2024-01-16T10:09:54.676Z,98530.31
2024-01-16T10:14:00.687Z,98531.94
2024-01-16T10:18:06.478Z,98517.75
2024-01-16T10:22:09.459Z,98445.03
2024-01-16T10:26:13.818Z,98514.97
2024-01-16T10:30:16.974Z,98480.53
2024-01-16T10:34:25.631Z,98455.34
2024-01-16T10:38:28.693Z,98461.72
2024-01-16T10:42:31.738Z,98392.31
2024-01-16T10:46:34.694Z,98313.38
2024-01-16T10:50:41.459Z,98316.59
2024-01-16T10:54:45.982Z,98439.72
2024-01-16T10:58:56.281Z,98262.44
2024-01-16T11:03:02.595Z,98386.97
2024-01-16T11:07:07.743Z,98487.34
2024-01-16T11:11:19.274Z,98315.34
2024-01-16T11:15:24.903Z,98444.09
2024-01-16T11:19:38.923Z,98511.22
2024-01-16T11:23:53.749Z,98471.75
2024-01-16T11:28:10.942Z,98374.69
2024-01-16T11:32:39.545Z,98263.31
2024-01-16T11:37:02.053Z,98471.59
2024-01-16T11:41:13.877Z,98389.63
2024-01-16T11:45:49.914Z,98445.72
2024-01-16T11:49:53.880Z,98370.19
2024-01-16T11:53:58.193Z,98406.97
2024-01-16T11:58:23.148Z,98440.16
2024-01-16T12:02:32.020Z,98225.66
2024-01-16T12:06:41.694Z,98391.19
2024-01-16T12:10:48.846Z,98232.31
2024-01-16T12:14:56.548Z,98288.81
2024-01-16T12:19:07.209Z,98311.00
2024-01-16T12:23:23.271Z,98423.78
2024-01-16T12:27:32.474Z,98375.78
2024-01-16T12:31:43.781Z,98353.41
2024-01-16T12:35:52.753Z,98321.44
2024-01-16T12:39:55.693Z,98373.41
2024-01-16T12:44:04.926Z,98233.94
2024-01-16T12:48:25.466Z,98349.53
2024-01-16T12:52:31.198Z,98268.59
2024-01-16T12:56:38.395Z,98126.91
2024-01-16T13:00:42.192Z,98326.91
2024-01-16T13:05:01.094Z,98336.00
2024-01-16T13:09:16.359Z,98360.78
2024-01-16T13:13:25.297Z,98229.81
2024-01-16T13:17:28.270Z,98251.50
2024-01-16T13:21:32.993Z,98360.44
2024-01-16T13:25:36.019Z,98296.78
2024-01-16T13:29:41.810Z,98262.28
2024-01-16T13:33:52.391Z,98323.00
2024-01-16T13:37:56.927Z,98161.19
2024-01-16T13:41:59.738Z,98329.22
2024-01-16T13:46:18.705Z,98329.63
2024-01-16T13:50:34.628Z,98311.81
2024-01-16T13:54:41.753Z,98246.06
2024-01-16T13:58:46.734Z,98311.53
2024-01-16T14:02:52.266Z,98175.41
2024-01-16T14:07:10.314Z,98327.34
2024-01-16T14:11:33.390Z,98257.81
2024-01-16T14:15:41.795Z,98277.97
2024-01-16T14:19:46.847Z,98222.28
2024-01-16T14:23:50.270Z,98124.28
2024-01-16T14:28:00.784Z,98274.25
2024-01-16T14:32:09.102Z,98328.75
2024-01-16T14:36:19.656Z,98288.59
2024-01-16T14:40:26.664Z,98173.63
2024-01-16T14:44:44.460Z,98222.16
2024-01-16T14:48:48.058Z,98187.81
2024-01-16T14:52:52.774Z,98232.53
2024-01-16T14:56:57.171Z,98221.56
2024-01-16T15:01:02.829Z,98209.38
2024-01-16T15:05:19.745Z,98287.25
2024-01-16T15:09:22.863Z,98287.69
2024-01-16T15:13:39.540Z,98296.47
2024-01-16T15:17:46.047Z,98238.28
2024-01-16T15:21:49.231Z,98223.72
2024-01-16T15:25:52.156Z,98081.06
2024-01-16T15:29:59.490Z,98173.84
2024-01-16T15:34:12.152Z,98312.19
2024-01-16T15:38:18.672Z,98157.94
2024-01-16T15:42:27.132Z,98146.00
2024-01-16T15:46:58.253Z,98171.13
2024-01-16T15:51:08.247Z,98147.47
2024-01-16T15:55:15.478Z,98274.47
2024-01-16T15:59:24.430Z,98215.75
2024-01-16T16:03:27.959Z,98153.59
2024-01-16T16:07:33.588Z,98303.06
2024-01-16T16:11:39.758Z,98223.25
2024-01-16T16:16:00.147Z,98262.78
2024-01-16T16:20:11.300Z,98313.22
2024-01-16T16:24:40.447Z,98314.13
2024-01-16T16:28:51.305Z,98275.00
2024-01-16T16:33:02.215Z,98310.47
2024-01-16T16:37:11.051Z,98252.69
2024-01-16T16:41:21.672Z,98233.69
2024-01-16T16:45:26.657Z,98255.66
2024-01-16T16:49:36.716Z,98252.00
2024-01-16T16:53:47.068Z,98302.00
2024-01-16T16:57:57.929Z,98272.44
2024-01-16T17:02:09.058Z,98236.13
2024-01-16T17:06:12.114Z,98293.47
2024-01-16T17:10:14.989Z,98244.63
2024-01-16T17:14:19.739Z,98289.78
2024-01-16T17:18:39.489Z,98281.31
2024-01-16T17:22:53.305Z,98235.84
2024-01-16T17:26:56.353Z,98241.19
2024-01-16T17:31:08.343Z,98256.13
2024-01-16T17:35:19.594Z,98218.59
2024-01-16T17:39:26.506Z,98265.66
2024-01-16T17:43:35.826Z,98242.94
2024-01-16T17:47:48.419Z,98193.38
2024-01-16T17:52:00.179Z,98151.41
2024-01-16T17:56:03.630Z,98030.19
2024-01-16T18:00:10.366Z,98239.72
2024-01-16T18:04:14.627Z,98156.13
2024-01-16T18:08:18.385Z,98229.34
2024-01-16T18:12:22.542Z,98145.97
2024-01-16T18:16:27.686Z,98180.66
2024-01-16T18:20:32.784Z,98204.72
2024-01-16T18:24:38.512Z,98127.81
2024-01-16T18:28:41.699Z,98208.41
2024-01-16T18:32:45.319Z,98155.41
2024-01-16T18:36:50.709Z,98199.47
2024-01-16T18:40:53.755Z,98149.56
2024-01-16T18:44:56.591Z,98144.28
2024-01-16T18:49:00.150Z,98192.25
2024-01-16T18:53:04.900Z,98191.78
2024-01-16T18:57:08.492Z,98196.09
2024-01-16T19:01:12.534Z,98187.56
2024-01-16T19:05:18.023Z,98176.19
2024-01-16T19:09:36.963Z,98102.22
2024-01-16T19:13:40.548Z,98176.72
2024-01-16T19:17:43.509Z,98158.22
2024-01-16T19:21:47.743Z,98141.53
2024-01-16T19:25:52.674Z,98106.00
2024-01-16T19:29:55.482Z,98074.00
2024-01-16T19:33:58.722Z,98124.63
2024-01-16T19:38:01.857Z,97994.25
2024-01-16T19:42:06.526Z,98047.94
2024-01-16T19:46:09.749Z,98109.75
2024-01-16T19:50:21.622Z,98098.19
2024-01-16T19:54:26.815Z,98116.16
2024-01-16T19:58:31.676Z,97982.84
2024-01-16T20:02:41.375Z,98119.50
2024-01-16T20:06:45.951Z,97960.88
2024-01-16T20:10:48.775Z,98105.91
2024-01-16T20:14:53.973Z,98069.09
2024-01-16T20:18:57.179Z,98097.59
2024-01-16T20:23:00.532Z,97998.56
2024-01-16T20:27:04.021Z,98048.38
2024-01-16T20:31:09.243Z,98103.50
2024-01-16T20:35:13.286Z,98089.91
2024-01-16T20:39:19.205Z,98085.06
2024-01-16T20:43:22.001Z,97980.31
2024-01-16T20:47:26.327Z,98092.47
2024-01-16T20:51:29.958Z,98088.78
2024-01-16T20:55:32.950Z,98083.81
2024-01-16T20:59:37.115Z,98082.53
2024-01-16T21:03:41.257Z,98071.97
2024-01-16T21:07:44.638Z,98032.84
2024-01-16T21:11:47.980Z,98017.16
2024-01-16T21:15:50.837Z,97947.13
2024-01-16T21:19:55.029Z,97973.72
2024-01-16T21:23:57.793Z,98028.66
2024-01-16T21:28:01.023Z,97967.66
2024-01-16T21:32:05.808Z,97949.22
2024-01-16T21:36:11.891Z,97999.84
2024-01-16T21:40:14.818Z,97984.13
2024-01-16T21:44:17.578Z,97992.13
2024-01-16T21:48:28.088Z,97926.44
2024-01-16T21:52:33.928Z,97885.00
2024-01-16T21:56:37.179Z,97963.44
2024-01-16T22:00:39.987Z,97971.78
2024-01-16T22:04:43.193Z,97868.16
2024-01-16T22:08:57.496Z,97955.25
2024-01-16T22:13:00.744Z,97853.72
2024-01-16T22:17:03.484Z,97949.94
2024-01-16T22:21:08.053Z,97938.13
2024-01-16T22:25:12.393Z,97884.78
2024-01-16T22:29:15.393Z,97932.47
2024-01-16T22:33:18.241Z,97925.78
2024-01-16T22:37:21.072Z,97746.00
2024-01-16T22:41:25.280Z,97903.59
2024-01-16T22:45:28.186Z,97865.84
2024-01-16T22:49:30.988Z,97862.25
2024-01-16T22:53:33.864Z,97839.97
2024-01-16T22:57:38.018Z,97830.25
2024-01-16T23:01:48.357Z,97848.34
2024-01-16T23:05:51.108Z,97822.56
2024-01-16T23:09:56.580Z,97873.19
2024-01-16T23:14:01.656Z,97864.19
2024-01-16T23:18:07.036Z,97861.00
2024-01-16T23:22:09.921Z,97841.16
2024-01-16T23:26:12.769Z,97621.25
2024-01-16T23:30:17.183Z,97820.28
2024-01-16T23:34:19.981Z,97755.06
2024-01-16T23:38:22.816Z,97794.50
2024-01-16T23:42:27.057Z,97711.59
2024-01-16T23:46:31.131Z,97772.06
2024-01-16T23:50:35.069Z,97739.09
2024-01-16T23:54:38.341Z,97781.09
2024-01-16T23:58:41.048Z,97719.44
